^^
Saratoga-Weather Station Historical Data
Daily Summary for September 1, 2020 Units:  Metric    English   Both
Daily Weekly Monthly Yearly Custom
  High: Low: Average:
Temperature: 10.8 °C 1.8 °C 7.3 °C
Dew Point: 6.8 °C 0.8 °C 4.6 °C
Humidity: 94% 67% 83%
Wind Speed: 25.9km/h 0km/h 6.3km/h
Wind Gust: 45.1km/h - -
Wind- - SW
Pressure: 999.3 hPa 989.2 hPa -
Precipitation: 8.9 mm    
Historical Graphs
 
 
Tabular Data for September 1, 2020
Time Temperature Dew Point Pressure Wind Wind Speed Wind Gust Humidity Rainfall Rate (Hourly) solar
00:01 6.8 °C 4.1 °C 999.3 hPa NNW 4.7 km/h 12.9 km/h 83% 0.0 mm 0 W/m2
00:06 6.9 °C 4.2 °C 999.3 hPa WNW 6.4 km/h 17.7 km/h 83% 0.0 mm 0 W/m2
00:11 7 °C 4.1 °C 999.3 hPa North 3.2 km/h 4.8 km/h 82% 0.0 mm 0 W/m2
00:16 7 °C 4.1 °C 999.3 hPa North 3.2 km/h 4.8 km/h 82% 0.0 mm 0 W/m2
00:21 7 °C 4.1 °C 999.3 hPa NW 1.4 km/h 17.7 km/h 82% 0.0 mm 0 W/m2
00:26 7.1 °C 4.1 °C 999.3 hPa North 4.7 km/h 6.4 km/h 81% 0.0 mm 0 W/m2
00:31 7.1 °C 3.7 °C 999.3 hPa NNW 6.4 km/h 8 km/h 79% 0.0 mm 0 W/m2
00:36 7.1 °C 3.5 °C 999.3 hPa West 11.1 km/h 11.3 km/h 78% 0.0 mm 0 W/m2
00:42 7 °C 3.4 °C 999.3 hPa NNW 3.2 km/h 12.9 km/h 78% 0.0 mm 0 W/m2
00:47 7 °C 3.6 °C 999.3 hPa NW 3.2 km/h 16.1 km/h 79% 0.0 mm 0 W/m2
00:52 7 °C 3.8 °C 999.0 hPa WNW 1.4 km/h 4.8 km/h 80% 0.0 mm 0 W/m2
00:57 7 °C 3.8 °C 999.0 hPa North 16.1 km/h 16.1 km/h 80% 0.0 mm 0 W/m2
01:02 6.9 °C 3.7 °C 999.0 hPa WNW 6.4 km/h 12.9 km/h 80% 0.0 mm 0 W/m2
01:07 6.8 °C 3.6 °C 999.0 hPa WSW 4.7 km/h 6.4 km/h 80% 0.0 mm 0 W/m2
01:12 6.8 °C 3.8 °C 999.0 hPa NNW 1.4 km/h 6.4 km/h 81% 0.0 mm 0 W/m2
01:17 6.8 °C 3.8 °C 999.0 hPa West 1.4 km/h 8 km/h 81% 0.0 mm 0 W/m2
01:22 6.8 °C 3.8 °C 999.0 hPa NNE 1.4 km/h 6.4 km/h 81% 0.0 mm 0 W/m2
01:27 6.7 °C 3.7 °C 999.0 hPa NW 6.4 km/h 6.4 km/h 81% 0.0 mm 0 W/m2
01:32 6.8 °C 3.8 °C 999.0 hPa Calm   6.4 km/h 81% 0.0 mm 0 W/m2
01:37 6.8 °C 3.8 °C 999.0 hPa NW 6.4 km/h 9.7 km/h 81% 0.0 mm 0 W/m2
01:42 6.8 °C 3.8 °C 998.6 hPa WNW 6.4 km/h 16.1 km/h 81% 0.0 mm 0 W/m2
01:47 6.8 °C 3.8 °C 999.0 hPa WNW 9.7 km/h 9.7 km/h 81% 0.0 mm 0 W/m2
01:52 6.8 °C 3.8 °C 998.6 hPa NNE 7.9 km/h 8 km/h 81% 0.0 mm 0 W/m2
01:57 6.7 °C 3.5 °C 999.0 hPa North 4.7 km/h 4.8 km/h 80% 0.0 mm 0 W/m2
02:02 6.7 °C 3.5 °C 999.0 hPa NNW 3.2 km/h 14.5 km/h 80% 0.0 mm 0 W/m2
02:07 6.7 °C 3.5 °C 999.0 hPa WNW 11.1 km/h 16.1 km/h 80% 0.0 mm 0 W/m2
02:13 6.7 °C 3.5 °C 999.0 hPa NNW 1.4 km/h 6.4 km/h 80% 0.0 mm 0 W/m2
02:18 6.7 °C 3.5 °C 999.0 hPa Calm   17.7 km/h 80% 0.0 mm 0 W/m2
02:23 6.6 °C 3.6 °C 999.0 hPa NNE 1.4 km/h 6.4 km/h 81% 0.0 mm 0 W/m2
02:28 6.5 °C 3.3 °C 999.0 hPa NNW 13 km/h 17.7 km/h 80% 0.0 mm 0 W/m2
02:33 6.6 °C 3.4 °C 998.6 hPa WNW 6.4 km/h 17.7 km/h 80% 0.0 mm 0 W/m2
02:38 6.6 °C 3.4 °C 998.6 hPa SSW 6.4 km/h 12.9 km/h 80% 0.0 mm 0 W/m2
02:43 6.5 °C 3.3 °C 998.6 hPa North 6.4 km/h 16.1 km/h 80% 0.0 mm 0 W/m2
02:48 6.5 °C 3.3 °C 998.6 hPa NE 1.4 km/h 6.4 km/h 80% 0.0 mm 0 W/m2
02:53 6.5 °C 3.3 °C 998.6 hPa West 3.2 km/h 16.1 km/h 80% 0.0 mm 0 W/m2
02:58 6.4 °C 3.2 °C 998.3 hPa SW 4.7 km/h 9.7 km/h 80% 0.0 mm 0 W/m2
03:03 6.4 °C 3.2 °C 998.6 hPa NW 1.4 km/h 3.2 km/h 80% 0.0 mm 0 W/m2
03:08 6.4 °C 3.4 °C 998.6 hPa Calm   12.9 km/h 81% 0.0 mm 0 W/m2
03:13 6.4 °C 3.4 °C 998.6 hPa WNW 7.9 km/h 11.3 km/h 81% 0.0 mm 0 W/m2
03:18 6.5 °C 3.5 °C 998.3 hPa NNW 6.4 km/h 11.3 km/h 81% 0.0 mm 0 W/m2
03:23 6.5 °C 3.5 °C 998.3 hPa WNW 11.1 km/h 12.9 km/h 81% 0.0 mm 0 W/m2
03:28 6.6 °C 3.6 °C 998.3 hPa West 6.4 km/h 12.9 km/h 81% 0.0 mm 0 W/m2
03:33 6.7 °C 3.7 °C 998.6 hPa NW 4.7 km/h 11.3 km/h 81% 0.0 mm 0 W/m2
03:38 6.7 °C 3.7 °C 998.3 hPa ENE 4.7 km/h 9.7 km/h 81% 0.0 mm 0 W/m2
03:43 6.7 °C 3.7 °C 998.3 hPa WNW 6.4 km/h 9.7 km/h 81% 0.0 mm 0 W/m2
03:48 6.7 °C 3.7 °C 998.3 hPa NW 11.1 km/h 17.7 km/h 81% 0.0 mm 0 W/m2
03:53 6.8 °C 3.8 °C 998.3 hPa NNW 3.2 km/h 16.1 km/h 81% 0.0 mm 0 W/m2
03:58 6.8 °C 3.8 °C 998.3 hPa NNE 3.2 km/h 8 km/h 81% 0.0 mm 0 W/m2
04:03 6.8 °C 3.8 °C 998.3 hPa WSW 6.4 km/h 12.9 km/h 81% 0.0 mm 0 W/m2
04:09 6.8 °C 3.9 °C 998.3 hPa NW 3.2 km/h 9.7 km/h 82% 0.0 mm 0 W/m2
04:14 6.8 °C 3.9 °C 998.6 hPa WNW 6.4 km/h 12.9 km/h 82% 0.0 mm 0 W/m2
04:19 6.9 °C 3.9 °C 998.6 hPa North 1.4 km/h 9.7 km/h 81% 0.0 mm 0 W/m2
04:24 6.9 °C 3.9 °C 998.6 hPa ENE 1.4 km/h 12.9 km/h 81% 0.0 mm 0 W/m2
04:29 6.9 °C 4 °C 998.3 hPa West 16.3 km/h 16.1 km/h 82% 0.0 mm 0 W/m2
04:34 6.9 °C 4 °C 998.6 hPa WSW 1.4 km/h 6.4 km/h 82% 0.0 mm 0 W/m2
04:39 6.9 °C 4 °C 998.6 hPa NE 4.7 km/h 22.5 km/h 82% 0.0 mm 0 W/m2
04:44 6.9 °C 4 °C 998.6 hPa WSW 7.9 km/h 12.9 km/h 82% 0.0 mm 0 W/m2
04:49 6.9 °C 4 °C 998.6 hPa NNW 6.4 km/h 14.5 km/h 82% 0.0 mm 0 W/m2
04:54 6.9 °C 4 °C 998.6 hPa NW 6.4 km/h 14.5 km/h 82% 0.0 mm 0 W/m2
04:59 6.9 °C 3.9 °C 998.6 hPa WNW 6.4 km/h 8 km/h 81% 0.0 mm 0 W/m2
05:04 7 °C 4 °C 998.6 hPa NNW 6.4 km/h 14.5 km/h 81% 0.0 mm 0 W/m2
05:09 6.9 °C 4 °C 998.6 hPa WSW 11.1 km/h 11.3 km/h 82% 0.0 mm 0 W/m2
05:14 6.9 °C 4.2 °C 998.6 hPa NNE 1.4 km/h 11.3 km/h 83% 0.2 mm 0 W/m2
05:19 6.8 °C 4.1 °C 998.6 hPa NW 4.7 km/h 6.4 km/h 83% 0.2 mm 0 W/m2
05:24 6.8 °C 4.3 °C 998.6 hPa NE 4.7 km/h 16.1 km/h 84% 0.2 mm 0 W/m2
05:29 6.7 °C 4.4 °C 998.6 hPa ENE 3.2 km/h 9.7 km/h 85% 0.2 mm 0 W/m2
05:34 6.6 °C 4.3 °C 998.6 hPa NW 1.4 km/h 8 km/h 85% 0.2 mm 0 W/m2
05:39 6.6 °C 4.3 °C 998.3 hPa West 4.7 km/h 17.7 km/h 85% 0.2 mm 0 W/m2
05:44 6.5 °C 4.3 °C 998.6 hPa West 14.3 km/h 14.5 km/h 86% 0.2 mm 0 W/m2
05:49 6.5 °C 4.3 °C 998.6 hPa NE 4.7 km/h 11.3 km/h 86% 0.2 mm 0 W/m2
05:54 6.4 °C 4.2 °C 998.3 hPa NW 9.7 km/h 16.1 km/h 86% 0.5 mm 0 W/m2
05:59 6.4 °C 4.2 °C 998.3 hPa WNW 4.7 km/h 4.8 km/h 86% 0.5 mm 0 W/m2
06:04 6.4 °C 4.2 °C 998.3 hPa NNW 3.2 km/h 9.7 km/h 86% 0.5 mm 0 W/m2
06:09 6.4 °C 4.2 °C 998.3 hPa NW 11.1 km/h 24.1 km/h 86% 0.5 mm 0 W/m2
06:14 6.4 °C 4.2 °C 998.3 hPa SW 3.2 km/h 6.4 km/h 86% 0.2 mm 0 W/m2
06:19 6.4 °C 4.2 °C 998.0 hPa WSW 14.3 km/h 17.7 km/h 86% 0.2 mm 0 W/m2
06:24 6.4 °C 4.2 °C 998.0 hPa WNW 3.2 km/h 14.5 km/h 86% 0.2 mm 0 W/m2
06:29 6.4 °C 4.2 °C 998.0 hPa NW 13 km/h 17.7 km/h 86% 0.2 mm 0 W/m2
06:34 6.4 °C 4.2 °C 998.0 hPa SSW 17.7 km/h 24.1 km/h 86% 0.2 mm 0 W/m2
06:39 6.4 °C 4.2 °C 998.0 hPa NNW 7.9 km/h 17.7 km/h 86% 0.2 mm 0 W/m2
06:44 6.4 °C 4.4 °C 998.0 hPa NNW 14.3 km/h 24.1 km/h 87% 0.2 mm 0 W/m2
06:50 6.4 °C 4.4 °C 998.0 hPa NW 3.2 km/h 8 km/h 87% 0.0 mm 0 W/m2
06:55 6.4 °C 4.4 °C 998.0 hPa NW 1.4 km/h 17.7 km/h 87% 0.0 mm 0 W/m2
07:00 6.4 °C 4.4 °C 998.0 hPa NNW 7.9 km/h 14.5 km/h 87% 0.0 mm 0 W/m2
07:05 6.4 °C 4.4 °C 998.0 hPa SW 3.2 km/h 16.1 km/h 87% 0.0 mm 0 W/m2
07:10 6.4 °C 4.4 °C 998.0 hPa NNW 6.4 km/h 8 km/h 87% 0.0 mm 0 W/m2
07:15 6.4 °C 4.4 °C 998.0 hPa North 4.7 km/h 8 km/h 87% 0.0 mm 0 W/m2
07:20 6.4 °C 4.6 °C 998.0 hPa East 3.2 km/h 6.4 km/h 88% 0.0 mm 0 W/m2
07:25 6.4 °C 4.6 °C 998.0 hPa WNW 7.9 km/h 12.9 km/h 88% 0.0 mm 0 W/m2
07:30 6.4 °C 4.4 °C 998.0 hPa NNW 3.2 km/h 11.3 km/h 87% 0.0 mm 0 W/m2
07:35 6.5 °C 4.5 °C 998.0 hPa East 1.4 km/h 20.9 km/h 87% 0.0 mm 7 W/m2
07:40 6.5 °C 4.5 °C 998.0 hPa ENE 6.4 km/h 11.3 km/h 87% 0.0 mm 12 W/m2
07:45 6.5 °C 4.5 °C 998.0 hPa NNW 7.9 km/h 11.3 km/h 87% 0.0 mm 11 W/m2
07:50 6.6 °C 4.4 °C 998.3 hPa ENE 3.2 km/h 12.9 km/h 86% 0.0 mm 12 W/m2
07:55 6.6 °C 4.4 °C 998.0 hPa NW 1.4 km/h 12.9 km/h 86% 0.0 mm 16 W/m2
08:00 6.6 °C 4.4 °C 998.3 hPa NW 6.4 km/h 9.7 km/h 86% 0.0 mm 14 W/m2
08:05 6.6 °C 4.4 °C 998.0 hPa NW 7.9 km/h 20.9 km/h 86% 0.0 mm 32 W/m2
08:10 6.7 °C 4.4 °C 998.0 hPa NNW 4.7 km/h 12.9 km/h 85% 0.0 mm 40 W/m2
08:15 6.7 °C 4.4 °C 998.3 hPa WNW 4.7 km/h 16.1 km/h 85% 0.0 mm 40 W/m2
08:20 6.7 °C 4.4 °C 998.3 hPa NW 1.4 km/h 6.4 km/h 85% 0.0 mm 46 W/m2
08:25 6.7 °C 4.4 °C 998.3 hPa WNW 3.2 km/h 19.3 km/h 85% 0.0 mm 40 W/m2
08:30 6.8 °C 4.3 °C 998.3 hPa WNW 4.7 km/h 8 km/h 84% 0.0 mm 40 W/m2
08:35 6.8 °C 4.3 °C 998.0 hPa SW 14.3 km/h 16.1 km/h 84% 0.0 mm 56 W/m2
08:40 6.9 °C 4.2 °C 998.3 hPa SW 1.4 km/h 12.9 km/h 83% 0.0 mm 93 W/m2
08:45 7.1 °C 4.4 °C 998.3 hPa NW 6.4 km/h 8 km/h 83% 0.0 mm 160 W/m2
08:50 7.2 °C 4.3 °C 998.0 hPa WNW 13 km/h 27.4 km/h 82% 0.0 mm 176 W/m2
08:55 7.3 °C 4.3 °C 998.3 hPa WNW 4.7 km/h 8 km/h 81% 0.0 mm 195 W/m2
09:00 7.5 °C 4.3 °C 998.3 hPa WNW 11.1 km/h 27.4 km/h 80% 0.0 mm 220 W/m2
09:05 7.6 °C 4.4 °C 998.3 hPa NW 7.9 km/h 17.7 km/h 80% 0.0 mm 246 W/m2
09:10 7.7 °C 4.5 °C 998.3 hPa WSW 3.2 km/h 20.9 km/h 80% 0.0 mm 229 W/m2
09:15 7.7 °C 4.5 °C 998.3 hPa West 9.7 km/h 30.6 km/h 80% 0.0 mm 206 W/m2
09:20 7.8 °C 4.4 °C 998.3 hPa WNW 6.4 km/h 16.1 km/h 79% 0.0 mm 287 W/m2
09:25 7.8 °C 4.4 °C 998.3 hPa NW 6.4 km/h 30.6 km/h 79% 0.0 mm 276 W/m2
09:30 7.8 °C 4.2 °C 998.3 hPa East 1.4 km/h 14.5 km/h 78% 0.0 mm 72 W/m2
09:35 7.9 °C 4.3 °C 998.3 hPa Calm   9.7 km/h 78% 0.0 mm 274 W/m2
09:40 8 °C 4.2 °C 998.3 hPa WNW 16.3 km/h 17.7 km/h 77% 0.0 mm 338 W/m2
09:45 8 °C 4.2 °C 998.3 hPa NNW 13 km/h 17.7 km/h 77% 0.0 mm 237 W/m2
09:50 8.1 °C 4.3 °C 998.6 hPa NNW 14.3 km/h 17.7 km/h 77% 0.0 mm 230 W/m2
09:55 8.2 °C 4.4 °C 998.6 hPa NW 9.7 km/h 20.9 km/h 77% 0.0 mm 476 W/m2
10:00 8.2 °C 4.4 °C 998.6 hPa NE 9.7 km/h 12.9 km/h 77% 0.0 mm 186 W/m2
10:05 8.1 °C 4.3 °C 998.6 hPa NNW 17.7 km/h 20.9 km/h 77% 0.0 mm 176 W/m2
10:10 7.8 °C 4 °C 998.6 hPa WNW 7.9 km/h 24.1 km/h 77% 0.0 mm 141 W/m2
10:15 7.7 °C 4.1 °C 998.6 hPa WSW 11.1 km/h 29 km/h 78% 0.0 mm 125 W/m2
10:20 7.7 °C 4.1 °C 998.6 hPa West 11.1 km/h 19.3 km/h 78% 0.0 mm 42 W/m2
10:25 7.4 °C 4.4 °C 999.3 hPa WNW 4.7 km/h 24.1 km/h 81% 0.2 mm 30 W/m2
10:30 6.7 °C 4 °C 999.0 hPa West 4.7 km/h 4.8 km/h 83% 0.5 mm 100 W/m2
10:35 6.3 °C 4 °C 999.0 hPa West 4.7 km/h 22.5 km/h 85% 0.5 mm 202 W/m2
10:40 6.2 °C 4 °C 998.6 hPa NW 1.4 km/h 8 km/h 86% 0.5 mm 338 W/m2
10:45 6.4 °C 4.6 °C 998.6 hPa WSW 6.4 km/h 20.9 km/h 88% 0.5 mm 232 W/m2
10:50 6.6 °C 4.8 °C 998.6 hPa NE 1.4 km/h 4.8 km/h 88% 0.5 mm 206 W/m2
10:55 6.8 °C 5 °C 998.6 hPa North 6.4 km/h 17.7 km/h 88% 0.5 mm 174 W/m2
11:00 6.9 °C 5.1 °C 998.6 hPa North 3.2 km/h 16.1 km/h 88% 0.5 mm 183 W/m2
11:05 7.2 °C 5.2 °C 998.6 hPa SE 4.7 km/h 14.5 km/h 87% 0.5 mm 234 W/m2
11:10 7.3 °C 4.8 °C 998.6 hPa West 3.2 km/h 19.3 km/h 84% 0.5 mm 149 W/m2
11:15 7.4 °C 4.7 °C 998.6 hPa NNW 1.4 km/h 4.8 km/h 83% 0.5 mm 323 W/m2
11:20 7.7 °C 5.2 °C 998.3 hPa West 14.3 km/h 17.7 km/h 84% 0.5 mm 241 W/m2
11:25 7.8 °C 4.9 °C 998.3 hPa North 6.4 km/h 12.9 km/h 82% 0.2 mm 251 W/m2
11:30 7.9 °C 5 °C 998.3 hPa WNW 4.7 km/h 4.8 km/h 82% 0.2 mm 165 W/m2
11:35 8 °C 4.8 °C 998.3 hPa NE 1.4 km/h 12.9 km/h 80% 0.2 mm 258 W/m2
11:40 8.1 °C 4.9 °C 998.0 hPa NNW 9.7 km/h 9.7 km/h 80% 0.2 mm 246 W/m2
11:46 8.3 °C 4.7 °C 998.3 hPa NNW 3.2 km/h 11.3 km/h 78% 0.2 mm 251 W/m2
11:51 8.4 °C 5 °C 998.0 hPa WNW 13 km/h 20.9 km/h 79% 0.2 mm 376 W/m2
11:56 8.6 °C 4.8 °C 998.0 hPa West 6.4 km/h 17.7 km/h 77% 0.2 mm 424 W/m2
12:01 8.7 °C 4.9 °C 998.0 hPa Calm   8 km/h 77% 0.2 mm 550 W/m2
12:06 8.8 °C 4.8 °C 998.0 hPa NW 4.7 km/h 20.9 km/h 76% 0.2 mm 461 W/m2
12:11 8.9 °C 4.9 °C 998.0 hPa WNW 11.1 km/h 11.3 km/h 76% 0.2 mm 515 W/m2
12:16 9.1 °C 5.3 °C 998.0 hPa West 4.7 km/h 16.1 km/h 77% 0.2 mm 471 W/m2
12:21 9.2 °C 5 °C 998.0 hPa WNW 11.1 km/h 16.1 km/h 75% 0.2 mm 482 W/m2
12:26 9.2 °C 5.2 °C 997.6 hPa NW 13 km/h 16.1 km/h 76% 0.2 mm 503 W/m2
12:31 9.2 °C 5.4 °C 998.0 hPa NW 6.4 km/h 14.5 km/h 77% 0.0 mm 540 W/m2
12:36 9.3 °C 5.3 °C 997.6 hPa NW 4.7 km/h 12.9 km/h 76% 0.0 mm 352 W/m2
12:41 9.4 °C 5.2 °C 997.6 hPa WSW 13 km/h 25.7 km/h 75% 0.0 mm 229 W/m2
12:46 9.3 °C 5.3 °C 997.6 hPa West 11.1 km/h 22.5 km/h 76% 0.0 mm 260 W/m2
12:51 9.2 °C 5.4 °C 997.3 hPa NNE 4.7 km/h 25.7 km/h 77% 0.0 mm 192 W/m2
12:56 9.3 °C 5.5 °C 997.3 hPa SW 7.9 km/h 17.7 km/h 77% 0.0 mm 160 W/m2
13:01 9.3 °C 5.3 °C 997.3 hPa WNW 13 km/h 12.9 km/h 76% 0.0 mm 295 W/m2
13:06 9.4 °C 5.6 °C 997.0 hPa North 6.4 km/h 17.7 km/h 77% 0.0 mm 267 W/m2
13:11 9.6 °C 5.6 °C 997.0 hPa West 4.7 km/h 11.3 km/h 76% 0.0 mm 301 W/m2
13:16 9.8 °C 5.8 °C 997.0 hPa NW 4.7 km/h 16.1 km/h 76% 0.0 mm 352 W/m2
13:21 10.1 °C 5.3 °C 996.6 hPa WNW 11.1 km/h 20.9 km/h 72% 0.0 mm 327 W/m2
13:26 10.1 °C 5.1 °C 996.6 hPa NE 3.2 km/h 17.7 km/h 71% 0.0 mm 352 W/m2
13:31 10.3 °C 5.5 °C 996.3 hPa NNE 13 km/h 12.9 km/h 72% 0.0 mm 253 W/m2
13:36 10.7 °C 5.2 °C 996.3 hPa West 6.4 km/h 16.1 km/h 69% 0.0 mm 218 W/m2
13:41 10.8 °C 5.3 °C 995.9 hPa WNW 7.9 km/h 8 km/h 69% 0.0 mm 311 W/m2
13:46 10.8 °C 4.9 °C 995.9 hPa West 6.4 km/h 12.9 km/h 67% 0.0 mm 197 W/m2
13:51 10.8 °C 4.9 °C 995.9 hPa NW 4.7 km/h 8 km/h 67% 0.0 mm 127 W/m2
13:56 10.7 °C 5.5 °C 995.9 hPa North 3.2 km/h 8 km/h 70% 0.0 mm 279 W/m2
14:01 10.4 °C 5.4 °C 995.6 hPa West 6.4 km/h 17.7 km/h 71% 0.0 mm 213 W/m2
14:06 10.1 °C 5.5 °C 995.6 hPa North 6.4 km/h 9.7 km/h 73% 0.0 mm 260 W/m2
14:11 9.9 °C 5.3 °C 995.3 hPa ENE 1.4 km/h 12.9 km/h 73% 0.0 mm 207 W/m2
14:16 9.9 °C 5.3 °C 995.3 hPa ENE 7.9 km/h 11.3 km/h 73% 0.0 mm 188 W/m2
14:22 9.8 °C 5.2 °C 995.3 hPa ENE 7.9 km/h 8 km/h 73% 0.0 mm 178 W/m2
14:27 9.9 °C 5.3 °C 994.6 hPa West 4.7 km/h 8 km/h 73% 0.0 mm 169 W/m2
14:32 9.9 °C 5.3 °C 994.6 hPa WNW 4.7 km/h 11.3 km/h 73% 0.0 mm 172 W/m2
14:37 9.8 °C 5.2 °C 994.6 hPa Calm   4.8 km/h 73% 0.0 mm 200 W/m2
14:42 9.9 °C 5.7 °C 994.6 hPa East 4.7 km/h 11.3 km/h 75% 0.0 mm 218 W/m2
14:47 10 °C 5.8 °C 994.2 hPa NW 3.2 km/h 4.8 km/h 75% 0.0 mm 172 W/m2
14:52 10.1 °C 5.7 °C 994.6 hPa Calm   6.4 km/h 74% 0.0 mm 172 W/m2
14:57 10.2 °C 5.8 °C 994.2 hPa NNW 3.2 km/h 9.7 km/h 74% 0.0 mm 218 W/m2
15:02 10.3 °C 6.1 °C 994.2 hPa NW 1.4 km/h 8 km/h 75% 0.0 mm 163 W/m2
15:07 10.3 °C 5.7 °C 994.2 hPa Calm   9.7 km/h 73% 0.0 mm 102 W/m2
15:12 10.4 °C 5.8 °C 993.9 hPa Calm   4.8 km/h 73% 0.0 mm 90 W/m2
15:17 10.3 °C 5.5 °C 993.9 hPa WNW 11.1 km/h 14.5 km/h 72% 0.0 mm 56 W/m2
15:22 10.2 °C 5.6 °C 993.9 hPa West 17.7 km/h 17.7 km/h 73% 0.0 mm 54 W/m2
15:27 10 °C 5.4 °C 993.6 hPa ENE 4.7 km/h 4.8 km/h 73% 0.0 mm 81 W/m2
15:32 9.9 °C 5.3 °C 993.6 hPa North 6.4 km/h 6.4 km/h 73% 0.0 mm 56 W/m2
15:37 9.9 °C 5.5 °C 993.6 hPa NNW 3.2 km/h 6.4 km/h 74% 0.0 mm 70 W/m2
15:42 9.8 °C 5.6 °C 993.2 hPa Calm   3.2 km/h 75% 0.0 mm 69 W/m2
15:47 9.8 °C 5.6 °C 993.2 hPa North 1.4 km/h 1.6 km/h 75% 0.0 mm 60 W/m2
15:52 9.8 °C 5.8 °C 993.2 hPa East 3.2 km/h 4.8 km/h 76% 0.0 mm 67 W/m2
15:57 9.7 °C 5.9 °C 992.9 hPa Calm     77% 0.0 mm 51 W/m2
16:02 9.7 °C 6 °C 992.9 hPa East 1.4 km/h 1.6 km/h 78% 0.0 mm 56 W/m2
16:07 9.6 °C 6.1 °C 992.9 hPa East 1.4 km/h 3.2 km/h 79% 0.0 mm 63 W/m2
16:12 9.6 °C 6.3 °C 992.5 hPa Calm     80% 0.2 mm 35 W/m2
16:17 9.5 °C 6.4 °C 992.5 hPa Calm   3.2 km/h 81% 0.2 mm 23 W/m2
16:22 9.4 °C 6.8 °C 992.9 hPa Calm   1.6 km/h 84% 0.5 mm 18 W/m2
16:27 9.2 °C 6.6 °C 992.5 hPa East 1.4 km/h 1.6 km/h 84% 0.5 mm 12 W/m2
16:32 9.1 °C 6.7 °C 992.5 hPa ENE 3.2 km/h 3.2 km/h 85% 1.0 mm 19 W/m2
16:37 8.9 °C 6.7 °C 992.5 hPa NNE 3.2 km/h 3.2 km/h 86% 1.3 mm 16 W/m2
16:42 8.8 °C 6.6 °C 992.5 hPa East 3.2 km/h 3.2 km/h 86% 1.5 mm 21 W/m2
16:47 8.6 °C 6.6 °C 992.5 hPa ENE 3.2 km/h 8 km/h 87% 1.8 mm 19 W/m2
16:52 8.5 °C 6.6 °C 992.5 hPa WNW 7.9 km/h 12.9 km/h 88% 2.0 mm 16 W/m2
16:57 8.4 °C 6.5 °C 992.2 hPa North 1.4 km/h 9.7 km/h 88% 2.3 mm 14 W/m2
17:02 8.3 °C 6.4 °C 991.9 hPa North 1.4 km/h 3.2 km/h 88% 2.5 mm 16 W/m2
17:07 8.3 °C 6.4 °C 991.9 hPa NE 4.7 km/h 9.7 km/h 88% 2.8 mm 12 W/m2
17:12 8.3 °C 6.4 °C 991.9 hPa East 3.2 km/h 4.8 km/h 88% 2.8 mm 18 W/m2
17:17 8.2 °C 6.5 °C 991.5 hPa NNE 3.2 km/h 9.7 km/h 89% 2.8 mm 12 W/m2
17:22 8.2 °C 6.5 °C 991.5 hPa ENE 6.4 km/h 8 km/h 89% 2.5 mm 11 W/m2
17:27 8.1 °C 6.4 °C 991.5 hPa NNE 3.2 km/h 6.4 km/h 89% 2.3 mm 16 W/m2
17:32 8.2 °C 6.5 °C 991.2 hPa East 14.3 km/h 17.7 km/h 89% 2.0 mm 26 W/m2
17:37 8.2 °C 6.7 °C 991.2 hPa WSW 6.4 km/h 14.5 km/h 90% 1.8 mm 19 W/m2
17:42 8.2 °C 6.5 °C 991.2 hPa East 3.2 km/h 8 km/h 89% 1.5 mm 11 W/m2
17:47 8.2 °C 6.5 °C 991.2 hPa ESE 4.7 km/h 14.5 km/h 89% 1.3 mm 5 W/m2
17:52 8.3 °C 6.6 °C 990.9 hPa West 3.2 km/h 9.7 km/h 89% 1.0 mm 0 W/m2
17:57 8.3 °C 6.6 °C 990.9 hPa ENE 13 km/h 14.5 km/h 89% 0.5 mm 0 W/m2
18:02 8.3 °C 6.6 °C 990.9 hPa NE 4.7 km/h 6.4 km/h 89% 0.5 mm 0 W/m2
18:07 8.3 °C 6.6 °C 990.9 hPa East 3.2 km/h 11.3 km/h 89% 0.2 mm 5 W/m2
18:12 8.3 °C 6.6 °C 990.9 hPa NE 3.2 km/h 6.4 km/h 89% 0.0 mm 0 W/m2
18:17 8.3 °C 6.6 °C 990.5 hPa NE 3.2 km/h 4.8 km/h 89% 0.0 mm 5 W/m2
18:22 8.3 °C 6.6 °C 990.5 hPa NW 3.2 km/h 4.8 km/h 89% 0.0 mm 0 W/m2
18:27 8.4 °C 6.7 °C 990.5 hPa Calm   3.2 km/h 89% 0.0 mm 0 W/m2
18:32 8.4 °C 6.7 °C 990.5 hPa NE 3.2 km/h 11.3 km/h 89% 0.0 mm 0 W/m2
18:37 8.4 °C 6.7 °C 990.2 hPa ENE 3.2 km/h 9.7 km/h 89% 0.0 mm 0 W/m2
18:42 8.4 °C 6.7 °C 990.2 hPa ENE 1.4 km/h 12.9 km/h 89% 0.0 mm 0 W/m2
18:47 8.4 °C 6.5 °C 990.2 hPa East 6.4 km/h 8 km/h 88% 0.0 mm 0 W/m2
18:52 8.4 °C 6.5 °C 990.2 hPa ENE 3.2 km/h 11.3 km/h 88% 0.0 mm 0 W/m2
18:57 8.3 °C 6.4 °C 990.2 hPa NE 7.9 km/h 9.7 km/h 88% 0.0 mm 0 W/m2
19:02 8.3 °C 6.4 °C 990.2 hPa Calm   3.2 km/h 88% 0.0 mm 0 W/m2
19:07 8.3 °C 6.4 °C 990.2 hPa SE 1.4 km/h 11.3 km/h 88% 0.0 mm 0 W/m2
19:12 8.3 °C 6.4 °C 990.2 hPa NE 4.7 km/h 12.9 km/h 88% 0.0 mm 0 W/m2
19:17 8.3 °C 6.6 °C 989.8 hPa ENE 6.4 km/h 11.3 km/h 89% 0.0 mm 0 W/m2
19:22 8.3 °C 6.6 °C 989.8 hPa East 4.7 km/h 6.4 km/h 89% 0.0 mm 0 W/m2
19:27 8.3 °C 6.4 °C 989.8 hPa NE 3.2 km/h 12.9 km/h 88% 0.0 mm 0 W/m2
19:32 8.4 °C 6.5 °C 989.8 hPa ESE 1.4 km/h 6.4 km/h 88% 0.0 mm 0 W/m2
19:37 8.4 °C 6.5 °C 989.8 hPa ENE 4.7 km/h 9.7 km/h 88% 0.0 mm 0 W/m2
19:42 8.4 °C 6.5 °C 989.5 hPa East 4.7 km/h 14.5 km/h 88% 0.0 mm 0 W/m2
19:47 8.3 °C 6.4 °C 989.5 hPa East 13 km/h 12.9 km/h 88% 0.0 mm 0 W/m2
19:52 8.3 °C 6.4 °C 989.5 hPa SE 6.4 km/h 11.3 km/h 88% 0.0 mm 0 W/m2
19:57 8.3 °C 6.4 °C 989.5 hPa ESE 4.7 km/h 6.4 km/h 88% 0.0 mm 0 W/m2
20:02 8.3 °C 6.6 °C 989.5 hPa East 1.4 km/h 6.4 km/h 89% 0.0 mm 0 W/m2
20:07 8.2 °C 6.5 °C 989.5 hPa ENE 4.7 km/h 6.4 km/h 89% 0.0 mm 0 W/m2
20:12 8.3 °C 6.4 °C 989.5 hPa North 3.2 km/h 3.2 km/h 88% 0.0 mm 0 W/m2
20:17 8.3 °C 6.4 °C 989.2 hPa ENE 3.2 km/h 11.3 km/h 88% 0.0 mm 0 W/m2
20:22 8.2 °C 6.3 °C 989.5 hPa NNE 4.7 km/h 14.5 km/h 88% 0.2 mm 0 W/m2
20:27 8.1 °C 6.2 °C 989.5 hPa NNW 4.7 km/h 6.4 km/h 88% 0.5 mm 0 W/m2
20:32 7.8 °C 6.1 °C 989.5 hPa NNW 3.2 km/h 8 km/h 89% 0.8 mm 0 W/m2
20:37 7.7 °C 6.2 °C 989.5 hPa North 6.4 km/h 11.3 km/h 90% 0.8 mm 0 W/m2
20:42 7.5 °C 6 °C 989.8 hPa NW 14.3 km/h 22.5 km/h 90% 1.0 mm 0 W/m2
20:47 7.2 °C 5.7 °C 989.8 hPa South 11.1 km/h 22.5 km/h 90% 1.3 mm 0 W/m2
20:52 6.9 °C 5.4 °C 989.8 hPa NW 7.9 km/h 8 km/h 90% 1.3 mm 0 W/m2
20:57 6.8 °C 5.3 °C 990.2 hPa NNW 6.4 km/h 8 km/h 90% 1.3 mm 0 W/m2
21:02 6.7 °C 5.3 °C 990.2 hPa West 14.3 km/h 16.1 km/h 91% 1.3 mm 0 W/m2
21:07 6.5 °C 5.1 °C 990.5 hPa West 3.2 km/h 19.3 km/h 91% 1.3 mm 0 W/m2
21:12 6.4 °C 5 °C 990.5 hPa West 9.7 km/h 12.9 km/h 91% 1.3 mm 0 W/m2
21:17 6.3 °C 5.1 °C 991.5 hPa NNW 24.1 km/h 45.1 km/h 92% 1.5 mm 0 W/m2
21:22 4.9 °C 3.2 °C 991.9 hPa West 20.9 km/h 35.4 km/h 89% 1.5 mm 0 W/m2
21:27 3.9 °C 2.3 °C 992.2 hPa WSW 24.1 km/h 35.4 km/h 89% 1.5 mm 0 W/m2
21:32 3.4 °C 1.9 °C 993.2 hPa WSW 25.9 km/h 27.4 km/h 90% 1.0 mm 0 W/m2
21:37 3.2 °C 1.9 °C 993.6 hPa NW 22.7 km/h 35.4 km/h 91% 1.3 mm 0 W/m2
21:42 2.9 °C 1.6 °C 993.9 hPa West 16.3 km/h 19.3 km/h 91% 1.3 mm 0 W/m2
21:47 2.7 °C 1.5 °C 994.6 hPa WNW 20.9 km/h 38.6 km/h 92% 1.3 mm 0 W/m2
21:52 2.4 °C 1.2 °C 994.9 hPa West 20.9 km/h 29 km/h 92% 1.5 mm 0 W/m2
21:57 2.3 °C 1.1 °C 995.3 hPa West 11.1 km/h 37 km/h 92% 1.8 mm 0 W/m2
22:02 2.3 °C 1.3 °C 995.6 hPa West 16.3 km/h 33.8 km/h 93% 1.8 mm 0 W/m2
22:07 2.1 °C 0.9 °C 995.6 hPa NW 7.9 km/h 20.9 km/h 92% 2.3 mm 0 W/m2
22:12 1.9 °C 0.9 °C 995.9 hPa SW 24.1 km/h 33.8 km/h 93% 2.3 mm 0 W/m2
22:17 1.8 °C 0.8 °C 995.9 hPa West 14.3 km/h 16.1 km/h 93% 2.3 mm 0 W/m2
22:22 1.8 °C 0.8 °C 995.9 hPa West 6.4 km/h 25.7 km/h 93% 2.3 mm 0 W/m2
22:27 1.9 °C 1 °C 996.3 hPa West 9.7 km/h 14.5 km/h 94% 2.3 mm 0 W/m2
22:32 1.9 °C 1 °C 996.3 hPa NW 13 km/h 12.9 km/h 94% 2.3 mm 0 W/m2
22:37 1.9 °C 1 °C 996.3 hPa NNW 1.4 km/h 17.7 km/h 94% 2.3 mm 0 W/m2
22:42 2 °C 1.1 °C 996.3 hPa WNW 11.1 km/h 12.9 km/h 94% 2.3 mm 0 W/m2
22:47 2.2 °C 1.3 °C 996.3 hPa WNW 7.9 km/h 17.7 km/h 94% 2.3 mm 0 W/m2
22:52 2.4 °C 1.5 °C 996.6 hPa NNW 7.9 km/h 9.7 km/h 94% 1.8 mm 0 W/m2
22:57 2.6 °C 1.7 °C 996.6 hPa NNW 6.4 km/h 12.9 km/h 94% 1.5 mm 0 W/m2
23:02 2.8 °C 1.9 °C 997.0 hPa WNW 7.9 km/h 14.5 km/h 94% 1.5 mm 0 W/m2
23:07 2.9 °C 2 °C 997.0 hPa West 1.4 km/h 17.7 km/h 94% 1.5 mm 0 W/m2
23:12 3.1 °C 2.2 °C 997.0 hPa WSW 7.9 km/h 16.1 km/h 94% 1.3 mm 0 W/m2
23:17 3.3 °C 2.4 °C 997.0 hPa WNW 3.2 km/h 6.4 km/h 94% 1.0 mm 0 W/m2
23:22 3.4 °C 2.5 °C 997.3 hPa WNW 14.3 km/h 16.1 km/h 94% 0.8 mm 0 W/m2
23:27 3.5 °C 2.6 °C 997.3 hPa Calm   6.4 km/h 94% 0.5 mm 0 W/m2
23:33 3.6 °C 2.7 °C 997.3 hPa West 3.2 km/h 19.3 km/h 94% 0.5 mm 0 W/m2
23:38 3.7 °C 2.8 °C 997.6 hPa WSW 3.2 km/h 19.3 km/h 94% 0.5 mm 0 W/m2
23:43 3.8 °C 2.9 °C 997.3 hPa West 3.2 km/h 9.7 km/h 94% 0.2 mm 0 W/m2
23:48 3.9 °C 3 °C 997.3 hPa NW 1.4 km/h 19.3 km/h 94% 0.2 mm 0 W/m2
23:53 4 °C 3.1 °C 997.3 hPa NW 7.9 km/h 14.5 km/h 94% 0.2 mm 0 W/m2
23:58 4.1 °C 3.2 °C 997.3 hPa Calm   19.3 km/h 94% 0.2 mm 0 W/m2
Juneau County Weather
Compliments of Weather Underground - 4 mb